Nathaniel Bowditch — WDG4219 — position and weather

sailwx.info

Track history (hours):
 
Tides and Currents Weather Stations Pressure Air Temp Water Temp Dewpoint Dewpoint Depression Visibility Wind Speed Wind Dir Waves Ship Positions

Nathaniel Bowditch

Owner: Boston Harbor Cruises, Boston, MA. More information available from US FCC via Universal Licensing System and Coast Guard Vessel Documentation Center.

Last reported at 2017-Sep-19 22:55 UTC. Time now 2017-Sep-20 23:54 UTC.
Position N 42°31' W 070°53'.

; draft 1.5 m.

Type: Passenger vessel. MMSI: 367534240.

Date/timePositionNaut miles runAvg speedWind from/ knotsBaromVisibWave heightAir tempDewpointWater temp
2017-Sep-19 22:55N 42°31' W 070°53'0 0.0
2017-Sep-19 22:31N 42°31' W 070°53'713.2
2017-Sep-19 22:00N 42°25' W 070°53'816.1
2017-Sep-19 21:30N 42°22' W 071°03'0 0.0
2017-Sep-19 21:00N 42°22' W 071°03'714.3
2017-Sep-19 20:31N 42°23' W 070°54'815.9
2017-Sep-19 20:00N 42°31' W 070°53'0 0.0
2017-Sep-19 19:30N 42°31' W 070°53'612.8
2017-Sep-19 19:01N 42°25' W 070°52'816.5
2017-Sep-19 18:30N 42°22' W 071°03'0 0.0
2017-Sep-19 17:59N 42°22' W 071°03'714.6
2017-Sep-19 17:31N 42°24' W 070°54'815.4
2017-Sep-19 17:00N 42°31' W 070°53'2 4.9
2017-Sep-19 16:30N 42°31' W 070°50'1224.6
2017-Sep-19 16:01N 42°20' W 070°58'4 7.3
2017-Sep-19 15:30N 42°22' W 071°03'815.4
2017-Sep-19 15:00N 42°24' W 070°53'714.2
2017-Sep-19 14:30N 42°31' W 070°53'713.5
2017-Sep-19 14:00N 42°24' W 070°53'816.2
2017-Sep-19 13:30N 42°22' W 071°03'0 0.0
2017-Sep-19 13:00N 42°22' W 071°03'0 0.0
2017-Sep-19 12:30N 42°22' W 071°03'0 0.0
2017-Sep-19 11:55N 42°22' W 071°03'717.3
2017-Sep-19 11:31N 42°24' W 070°54'815.3
2017-Sep-19 11:00N 42°31' W 070°53'0 0.0
2017-Sep-19 10:30N 42°31' W 070°53'0 0.0
2017-Sep-19 01:02N 42°31' W 070°53'0 0.2
2017-Sep-19 01:00N 42°31' W 070°53'612.5
2017-Sep-19 00:30N 42°25' W 070°52'917.1
2017-Sep-19 00:00N 42°22' W 071°03'713.2
2017-Sep-18 23:31N 42°23' W 070°54'816.6
2017-Sep-18 23:00N 42°31' W 070°53'0 0.0
2017-Sep-18 22:30N 42°31' W 070°53'611.9
2017-Sep-18 22:00N 42°25' W 070°52'917.9
2017-Sep-18 21:30N 42°22' W 071°03'0 0.0
2017-Sep-18 21:01N 42°22' W 071°03'714.4
2017-Sep-18 20:31N 42°24' W 070°54'815.1
2017-Sep-18 20:00N 42°31' W 070°53'0 0.0
2017-Sep-18 19:30N 42°31' W 070°53'612.7
2017-Sep-18 19:00N 42°25' W 070°52'816.6
2017-Sep-18 18:30N 42°22' W 071°03'0 0.0
2017-Sep-18 18:00N 42°22' W 071°03'714.6
2017-Sep-18 17:31N 42°24' W 070°54'714.8
2017-Sep-18 17:00N 42°31' W 070°53'3 5.3
2017-Sep-18 16:30N 42°30' W 070°49'1224.6
2017-Sep-18 16:01N 42°20' W 070°59'3 6.5
2017-Sep-18 15:30N 42°22' W 071°03'815.6
2017-Sep-18 15:01N 42°24' W 070°53'714.3
2017-Sep-18 14:30N 42°31' W 070°53'713.1
2017-Sep-18 14:00N 42°25' W 070°52'816.9
2017-Sep-18 13:30N 42°22' W 071°03'0 0.0
2017-Sep-18 13:00N 42°22' W 071°03'0 0.0
2017-Sep-18 12:30N 42°22' W 071°03'0 0.0
2017-Sep-18 12:00N 42°22' W 071°03'816.0
2017-Sep-18 11:31N 42°25' W 070°53'713.4
2017-Sep-18 11:00N 42°31' W 070°53'0 0.0
2017-Sep-18 10:30N 42°31' W 070°53'0 0.0
2017-Sep-18 00:56N 42°31' W 070°53'615.1
2017-Sep-18 00:31N 42°25' W 070°52'916.2
2017-Sep-17 23:59N 42°22' W 071°03'714.8
2017-Sep-17 23:31N 42°24' W 070°54'815.5
2017-Sep-17 23:00N 42°31' W 070°53'0 0.0
2017-Sep-17 22:29N 42°31' W 070°53'714.3
2017-Sep-17 22:01N 42°25' W 070°53'813.8
2017-Sep-17 21:26N 42°22' W 071°03'0 0.0
2017-Sep-17 21:00N 42°22' W 071°03'713.5
2017-Sep-17 20:31N 42°23' W 070°54'816.0
2017-Sep-17 20:00N 42°31' W 070°53'0 0.0
2017-Sep-17 19:30N 42°31' W 070°53'713.6
2017-Sep-17 19:01N 42°25' W 070°53'815.7
2017-Sep-17 18:30N 42°22' W 071°03'0 0.0
2017-Sep-17 17:59N 42°22' W 071°03'714.0
2017-Sep-17 17:31N 42°23' W 070°54'816.3
2017-Sep-17 17:00N 42°31' W 070°53'3 5.6
2017-Sep-17 16:31N 42°30' W 070°49'1224.3
2017-Sep-17 16:01N 42°20' W 070°59'3 6.0
2017-Sep-17 15:28N 42°22' W 071°03'816.4
2017-Sep-17 15:01N 42°24' W 070°53'714.2
2017-Sep-17 14:30N 42°31' W 070°53'612.2
2017-Sep-17 14:01N 42°25' W 070°52'917.1
2017-Sep-17 13:30N 42°22' W 071°03'0 0.3
2017-Sep-17 13:01N 42°22' W 071°03'815.0
2017-Sep-17 12:31N 42°24' W 070°53'714.1
2017-Sep-17 12:00N 42°31' W 070°53'0 0.0
2017-Sep-17 02:02N 42°31' W 070°53'0 0.0
2017-Sep-17 02:00N 42°31' W 070°53'815.8
2017-Sep-17 01:31N 42°23' W 070°54'713.5
2017-Sep-17 01:00N 42°22' W 071°03'715.0
2017-Sep-17 00:31N 42°24' W 070°54'815.3
2017-Sep-17 00:00N 42°31' W 070°53'0 0.0
2017-Sep-16 23:30N 42°31' W 070°53'0 0.0
2017-Sep-16 23:00N 42°31' W 070°53'0 0.0
2017-Sep-16 22:30N 42°31' W 070°53'815.4
2017-Sep-16 22:01N 42°24' W 070°54'713.9
2017-Sep-16 21:29N 42°22' W 071°03'0 0.0
2017-Sep-16 20:57N 42°22' W 071°03'716.4
2017-Sep-16 20:31N 42°24' W 070°54'714.6
2017-Sep-16 20:01N 42°31' W 070°53'0 0.0
2017-Sep-16 19:30N 42°31' W 070°53'612.6
2017-Sep-16 19:01N 42°25' W 070°52'816.9
2017-Sep-16 18:31N 42°22' W 071°03'0 0.0
2017-Sep-16 18:01N 42°22' W 071°03'714.1
2017-Sep-16 17:31N 42°24' W 070°54'815.4
2017-Sep-16 17:00N 42°31' W 070°53'2 4.9
2017-Sep-16 16:31N 42°31' W 070°50'1224.9
2017-Sep-16 16:01N 42°20' W 070°59'3 6.0
2017-Sep-16 15:28N 42°22' W 071°03'817.3
2017-Sep-16 15:00N 42°25' W 070°53'713.0
2017-Sep-16 14:30N 42°31' W 070°53'713.5
2017-Sep-16 14:00N 42°25' W 070°53'816.0
2017-Sep-16 13:30N 42°22' W 071°03'0 0.0
2017-Sep-16 13:00N 42°22' W 071°03'714.1
2017-Sep-16 12:31N 42°24' W 070°54'815.3
2017-Sep-16 12:00N 42°31' W 070°53'0 0.0
2017-Sep-16 01:00N 42°31' W 070°53'714.0
2017-Sep-16 00:31N 42°24' W 070°53'815.0
2017-Sep-16 00:00N 42°22' W 071°03'713.7
2017-Sep-15 23:30N 42°23' W 070°54'816.0
2017-Sep-15 23:01N 42°31' W 070°53'0 0.0
2017-Sep-15 22:30N 42°31' W 070°53'714.5
2017-Sep-15 22:00N 42°24' W 070°54'714.5
2017-Sep-15 21:30N 42°22' W 071°03'0 0.0
2017-Sep-15 21:00N 42°22' W 071°03'715.1
2017-Sep-15 20:30N 42°24' W 070°53'714.5
2017-Sep-15 20:00N 42°31' W 070°53'0 0.0
2017-Sep-15 19:30N 42°31' W 070°53'815.4
2017-Sep-15 19:01N 42°24' W 070°54'711.6
2017-Sep-15 18:24N 42°22' W 071°03'0 0.0
2017-Sep-15 18:01N 42°22' W 071°03'713.4
2017-Sep-15 17:31N 42°23' W 070°54'816.3
2017-Sep-15 17:00N 42°31' W 070°53'2 3.6
2017-Sep-15 16:31N 42°31' W 070°50'1224.8
2017-Sep-15 16:01N 42°20' W 070°58'4 7.9
2017-Sep-15 15:30N 42°22' W 071°03'714.3
2017-Sep-15 15:01N 42°24' W 070°54'814.8
2017-Sep-15 14:30N 42°31' W 070°53'613.1
2017-Sep-15 14:00N 42°25' W 070°53'816.8
2017-Sep-15 13:30N 42°22' W 071°03'0 0.0
2017-Sep-15 13:00N 42°22' W 071°03'0 0.0
2017-Sep-15 12:30N 42°22' W 071°03'0 0.0
2017-Sep-15 12:00N 42°22' W 071°03'714.9
2017-Sep-15 11:31N 42°24' W 070°53'714.6
2017-Sep-15 11:00N 42°31' W 070°53'0 0.0
2017-Sep-15 10:30N 42°31' W 070°53'0 0.0
2017-Sep-15 00:54N 42°31' W 070°53'513.8
2017-Sep-15 00:30N 42°26' W 070°52'918.8
2017-Sep-15 00:00N 42°22' W 071°03'713.8
2017-Sep-14 23:30N 42°23' W 070°54'815.5
2017-Sep-14 23:00N 42°31' W 070°53'0 0.0
2017-Sep-14 22:30N 42°31' W 070°53'611.9
2017-Sep-14 22:01N 42°25' W 070°52'917.8
2017-Sep-14 21:30N 42°22' W 071°03'0 0.0
2017-Sep-14 21:00N 42°22' W 071°03'612.8
2017-Sep-14 20:31N 42°23' W 070°55'816.1
2017-Sep-14 20:00N 42°31' W 070°53'0 0.0
2017-Sep-14 19:30N 42°31' W 070°53'713.4
2017-Sep-14 19:00N 42°25' W 070°53'816.2
2017-Sep-14 18:30N 42°22' W 071°03'0 0.0
2017-Sep-14 18:00N 42°22' W 071°03'714.0
2017-Sep-14 17:31N 42°24' W 070°54'815.6
2017-Sep-14 17:00N 42°31' W 070°53'2 4.0
2017-Sep-14 16:30N 42°31' W 070°50'1225.0
2017-Sep-14 16:01N 42°20' W 070°58'4 7.6
2017-Sep-14 15:30N 42°22' W 071°03'713.6
2017-Sep-14 15:01N 42°23' W 070°54'815.8
2017-Sep-14 14:30N 42°31' W 070°53'612.7
2017-Sep-14 14:00N 42°25' W 070°52'917.2
2017-Sep-14 13:30N 42°22' W 071°03'0 0.0
2017-Sep-14 13:00N 42°22' W 071°03'0 0.0
2017-Sep-14 12:30N 42°22' W 071°03'0 0.0
2017-Sep-14 12:00N 42°22' W 071°03'815.7
2017-Sep-14 11:31N 42°24' W 070°53'713.7
2017-Sep-14 11:01N 42°31' W 070°53'0 0.0
2017-Sep-14 10:30N 42°31' W 070°53'0 0.0
2017-Sep-14 00:59N 42°31' W 070°53'714.9
2017-Sep-14 00:30N 42°24' W 070°53'815.4
2017-Sep-14 00:01N 42°22' W 071°03'713.3
2017-Sep-13 23:31N 42°23' W 070°54'816.4
2017-Sep-13 23:01N 42°31' W 070°53'0 0.0
2017-Sep-13 22:30N 42°31' W 070°53'612.5
2017-Sep-13 22:01N 42°25' W 070°53'816.8
2017-Sep-13 21:30N 42°22' W 071°03'0 0.0
2017-Sep-13 21:00N 42°22' W 071°03'714.1
2017-Sep-13 20:31N 42°24' W 070°54'815.5
2017-Sep-13 20:00N 42°31' W 070°53'0 0.0
2017-Sep-13 19:30N 42°31' W 070°53'714.5
2017-Sep-13 19:01N 42°24' W 070°53'815.1
2017-Sep-13 18:30N 42°22' W 071°03'0 0.0
2017-Sep-13 18:00N 42°22' W 071°03'713.8
2017-Sep-13 17:31N 42°24' W 070°54'815.2
2017-Sep-13 17:00N 42°31' W 070°53'2 4.8
2017-Sep-13 16:31N 42°31' W 070°50'1224.7
2017-Sep-13 16:01N 42°20' W 070°59'3 6.9
2017-Sep-13 15:30N 42°22' W 071°03'815.6
2017-Sep-13 15:01N 42°24' W 070°53'713.8
2017-Sep-13 14:30N 42°31' W 070°53'713.1
2017-Sep-13 14:01N 42°25' W 070°52'816.9
2017-Sep-13 13:30N 42°22' W 071°03'0 0.0
2017-Sep-13 13:00N 42°22' W 071°03'0 0.0
2017-Sep-13 12:30N 42°22' W 071°03'0 0.0
2017-Sep-13 12:00N 42°22' W 071°03'815.8
2017-Sep-13 11:30N 42°24' W 070°53'713.9
2017-Sep-13 11:00N 42°31' W 070°53'0 0.0
2017-Sep-13 10:30N 42°31' W 070°53'0 0.0
2017-Sep-13 01:00N 42°31' W 070°53'611.8
2017-Sep-13 00:30N 42°26' W 070°52'918.2
2017-Sep-13 00:00N 42°22' W 071°03'713.4
2017-Sep-12 23:30N 42°23' W 070°54'816.2
2017-Sep-12 23:00N 42°31' W 070°53'0 0.0
2017-Sep-12 22:30N 42°31' W 070°53'612.4
2017-Sep-12 22:00N 42°25' W 070°52'917.0
2017-Sep-12 21:30N 42°22' W 071°03'0 0.0
2017-Sep-12 21:00N 42°22' W 071°03'714.6
2017-Sep-12 20:30N 42°24' W 070°54'815.0
2017-Sep-12 20:00N 42°31' W 070°53'0 0.0
2017-Sep-12 19:30N 42°31' W 070°53'713.8
2017-Sep-12 19:01N 42°24' W 070°53'815.9
2017-Sep-12 18:31N 42°22' W 071°03'0 0.0
2017-Sep-12 18:01N 42°22' W 071°03'713.5
2017-Sep-12 17:31N 42°23' W 070°54'816.1
2017-Sep-12 17:01N 42°31' W 070°53'2 4.9
2017-Sep-12 16:30N 42°31' W 070°50'1224.6
2017-Sep-12 16:01N 42°20' W 070°59'3 6.7
2017-Sep-12 15:31N 42°22' W 071°03'713.9
2017-Sep-12 15:01N 42°24' W 070°54'815.5
2017-Sep-12 14:30N 42°31' W 070°53'612.9
2017-Sep-12 14:01N 42°25' W 070°53'816.6
2017-Sep-12 13:30N 42°22' W 071°03'0 0.0
2017-Sep-12 13:00N 42°22' W 071°03'0 0.0
2017-Sep-12 12:30N 42°22' W 071°03'0 0.0
2017-Sep-12 12:00N 42°22' W 071°03'815.2
2017-Sep-12 11:31N 42°24' W 070°53'714.5
2017-Sep-12 11:00N 42°31' W 070°53'0 0.0
2017-Sep-12 10:30N 42°31' W 070°53'0 0.0
2017-Sep-12 00:56N 42°31' W 070°53'614.3
2017-Sep-12 00:31N 42°25' W 070°52'917.6
2017-Sep-12 00:00N 42°22' W 071°03'714.0
2017-Sep-11 23:30N 42°23' W 070°54'815.5
2017-Sep-11 23:00N 42°31' W 070°53'0 0.0
2017-Sep-11 22:30N 42°31' W 070°53'612.2
2017-Sep-11 22:00N 42°25' W 070°52'917.4
2017-Sep-11 21:30N 42°22' W 071°03'0 0.0
2017-Sep-11 21:00N 42°22' W 071°03'713.4
2017-Sep-11 20:31N 42°23' W 070°54'816.0
2017-Sep-11 20:01N 42°31' W 070°53'0 0.0
2017-Sep-11 19:30N 42°31' W 070°53'612.4
2017-Sep-11 19:01N 42°25' W 070°52'917.7
2017-Sep-11 18:30N 42°22' W 071°03'0 0.0
2017-Sep-11 18:00N 42°22' W 071°03'713.4
2017-Sep-11 17:31N 42°23' W 070°54'816.0
2017-Sep-11 17:00N 42°31' W 070°53'3 5.5
2017-Sep-11 16:31N 42°30' W 070°49'1224.7
2017-Sep-11 16:01N 42°20' W 070°60'3 5.4
2017-Sep-11 15:30N 42°22' W 071°03'713.9
2017-Sep-11 15:01N 42°24' W 070°54'815.5
2017-Sep-11 14:31N 42°31' W 070°53'611.8
2017-Sep-11 14:00N 42°25' W 070°52'918.2
2017-Sep-11 13:30N 42°22' W 071°03'0 0.0
2017-Sep-11 13:00N 42°22' W 071°03'0 0.0
2017-Sep-11 12:30N 42°22' W 071°03'0 0.0
2017-Sep-11 12:00N 42°22' W 071°03'714.3
2017-Sep-11 11:30N 42°24' W 070°54'815.3
2017-Sep-11 11:00N 42°31' W 070°53'0 0.0
2017-Sep-11 10:30N 42°31' W 070°53'0 0.0
2017-Sep-11 01:20N 42°31' W 070°53'0 0.0
2017-Sep-11 00:59N 42°31' W 070°53'613.4
2017-Sep-11 00:31N 42°25' W 070°52'816.6
2017-Sep-11 00:00N 42°22' W 071°03'713.8
2017-Sep-10 23:31N 42°23' W 070°54'815.9
2017-Sep-10 23:01N 42°31' W 070°53'0 0.0
2017-Sep-10 22:31N 42°31' W 070°53'612.8
2017-Sep-10 22:00N 42°25' W 070°53'816.7
2017-Sep-10 21:30N 42°22' W 071°03'0 0.0
2017-Sep-10 21:00N 42°22' W 071°03'714.0
2017-Sep-10 20:31N 42°24' W 070°54'815.3
2017-Sep-10 20:00N 42°31' W 070°53'0 0.0
2017-Sep-10 19:30N 42°31' W 070°53'612.8
2017-Sep-10 19:01N 42°25' W 070°52'816.8
2017-Sep-10 18:30N 42°22' W 071°03'0 0.9
2017-Sep-10 18:00N 42°22' W 071°03'714.6
2017-Sep-10 17:30N 42°24' W 070°53'714.2
2017-Sep-10 17:00N 42°31' W 070°53'2 3.7
2017-Sep-10 16:30N 42°31' W 070°50'1224.6
2017-Sep-10 16:01N 42°20' W 070°58'4 8.3
2017-Sep-10 15:30N 42°22' W 071°03'612.8
2017-Sep-10 15:00N 42°24' W 070°55'3 2.5
2017-Sep-10 14:00N 42°25' W 070°52'917.6
2017-Sep-10 13:31N 42°22' W 071°03'0 0.6
2017-Sep-10 13:01N 42°22' W 071°03'714.4
2017-Sep-10 12:30N 42°24' W 070°53'714.7
2017-Sep-10 12:00N 42°31' W 070°53'0 0.0
2017-Sep-10 11:30N 42°31' W 070°53'0 0.0
2017-Sep-10 02:24N 42°31' W 070°53'0 0.0
2017-Sep-10 02:00N 42°31' W 070°53'612.1
2017-Sep-10 01:30N 42°25' W 070°52'917.5
2017-Sep-10 01:00N 42°22' W 071°03'714.1
2017-Sep-10 00:31N 42°23' W 070°54'815.7
2017-Sep-10 00:00N 42°31' W 070°53'0 0.0
2017-Sep-09 23:30N 42°31' W 070°53'0 0.0
2017-Sep-09 23:00N 42°31' W 070°53'  
Track history (hours):
 
Tides and Currents Weather Stations Pressure Air Temp Water Temp Dewpoint Dewpoint Depression Visibility Wind Speed Wind Dir Waves Ship Positions

Nathaniel Bowditch

Owner: Boston Harbor Cruises, Boston, MA. More information available from US FCC via Universal Licensing System and Coast Guard Vessel Documentation Center.

Last reported at 2017-Sep-19 22:55 UTC. Time now 2017-Sep-20 23:54 UTC.
Position N 42°31' W 070°53'.

; draft 1.5 m.

Type: Passenger vessel. MMSI: 367534240.

Date/timePositionNaut miles runAvg speedWind from/ knotsBaromVisibWave heightAir tempDewpointWater temp
2017-Sep-19 22:55N 42°31' W 070°53'0 0.0
2017-Sep-19 22:31N 42°31' W 070°53'713.2
2017-Sep-19 22:00N 42°25' W 070°53'816.1
2017-Sep-19 21:30N 42°22' W 071°03'0 0.0
2017-Sep-19 21:00N 42°22' W 071°03'714.3
2017-Sep-19 20:31N 42°23' W 070°54'815.9
2017-Sep-19 20:00N 42°31' W 070°53'0 0.0
2017-Sep-19 19:30N 42°31' W 070°53'612.8
2017-Sep-19 19:01N 42°25' W 070°52'816.5
2017-Sep-19 18:30N 42°22' W 071°03'0 0.0
2017-Sep-19 17:59N 42°22' W 071°03'714.6
2017-Sep-19 17:31N 42°24' W 070°54'815.4
2017-Sep-19 17:00N 42°31' W 070°53'2 4.9
2017-Sep-19 16:30N 42°31' W 070°50'1224.6
2017-Sep-19 16:01N 42°20' W 070°58'4 7.3
2017-Sep-19 15:30N 42°22' W 071°03'815.4
2017-Sep-19 15:00N 42°24' W 070°53'714.2
2017-Sep-19 14:30N 42°31' W 070°53'713.5
2017-Sep-19 14:00N 42°24' W 070°53'816.2
2017-Sep-19 13:30N 42°22' W 071°03'0 0.0
2017-Sep-19 13:00N 42°22' W 071°03'0 0.0
2017-Sep-19 12:30N 42°22' W 071°03'0 0.0
2017-Sep-19 11:55N 42°22' W 071°03'717.3
2017-Sep-19 11:31N 42°24' W 070°54'815.3
2017-Sep-19 11:00N 42°31' W 070°53'0 0.0
2017-Sep-19 10:30N 42°31' W 070°53'0 0.0
2017-Sep-19 01:02N 42°31' W 070°53'0 0.2
2017-Sep-19 01:00N 42°31' W 070°53'612.5
2017-Sep-19 00:30N 42°25' W 070°52'917.1
2017-Sep-19 00:00N 42°22' W 071°03'713.2
2017-Sep-18 23:31N 42°23' W 070°54'816.6
2017-Sep-18 23:00N 42°31' W 070°53'0 0.0
2017-Sep-18 22:30N 42°31' W 070°53'611.9
2017-Sep-18 22:00N 42°25' W 070°52'917.9
2017-Sep-18 21:30N 42°22' W 071°03'0 0.0
2017-Sep-18 21:01N 42°22' W 071°03'714.4
2017-Sep-18 20:31N 42°24' W 070°54'815.1
2017-Sep-18 20:00N 42°31' W 070°53'0 0.0
2017-Sep-18 19:30N 42°31' W 070°53'612.7
2017-Sep-18 19:00N 42°25' W 070°52'816.6
2017-Sep-18 18:30N 42°22' W 071°03'0 0.0
2017-Sep-18 18:00N 42°22' W 071°03'714.6
2017-Sep-18 17:31N 42°24' W 070°54'714.8
2017-Sep-18 17:00N 42°31' W 070°53'3 5.3
2017-Sep-18 16:30N 42°30' W 070°49'1224.6
2017-Sep-18 16:01N 42°20' W 070°59'3 6.5
2017-Sep-18 15:30N 42°22' W 071°03'815.6
2017-Sep-18 15:01N 42°24' W 070°53'714.3
2017-Sep-18 14:30N 42°31' W 070°53'713.1
2017-Sep-18 14:00N 42°25' W 070°52'816.9
2017-Sep-18 13:30N 42°22' W 071°03'0 0.0
2017-Sep-18 13:00N 42°22' W 071°03'0 0.0
2017-Sep-18 12:30N 42°22' W 071°03'0 0.0
2017-Sep-18 12:00N 42°22' W 071°03'816.0
2017-Sep-18 11:31N 42°25' W 070°53'713.4
2017-Sep-18 11:00N 42°31' W 070°53'0 0.0
2017-Sep-18 10:30N 42°31' W 070°53'0 0.0
2017-Sep-18 00:56N 42°31' W 070°53'615.1
2017-Sep-18 00:31N 42°25' W 070°52'916.2
2017-Sep-17 23:59N 42°22' W 071°03'714.8
2017-Sep-17 23:31N 42°24' W 070°54'815.5
2017-Sep-17 23:00N 42°31' W 070°53'0 0.0
2017-Sep-17 22:29N 42°31' W 070°53'714.3
2017-Sep-17 22:01N 42°25' W 070°53'813.8
2017-Sep-17 21:26N 42°22' W 071°03'0 0.0
2017-Sep-17 21:00N 42°22' W 071°03'713.5
2017-Sep-17 20:31N 42°23' W 070°54'816.0
2017-Sep-17 20:00N 42°31' W 070°53'0 0.0
2017-Sep-17 19:30N 42°31' W 070°53'713.6
2017-Sep-17 19:01N 42°25' W 070°53'815.7
2017-Sep-17 18:30N 42°22' W 071°03'0 0.0
2017-Sep-17 17:59N 42°22' W 071°03'714.0
2017-Sep-17 17:31N 42°23' W 070°54'816.3
2017-Sep-17 17:00N 42°31' W 070°53'3 5.6
2017-Sep-17 16:31N 42°30' W 070°49'1224.3
2017-Sep-17 16:01N 42°20' W 070°59'3 6.0
2017-Sep-17 15:28N 42°22' W 071°03'816.4
2017-Sep-17 15:01N 42°24' W 070°53'714.2
2017-Sep-17 14:30N 42°31' W 070°53'612.2
2017-Sep-17 14:01N 42°25' W 070°52'917.1
2017-Sep-17 13:30N 42°22' W 071°03'0 0.3
2017-Sep-17 13:01N 42°22' W 071°03'815.0
2017-Sep-17 12:31N 42°24' W 070°53'714.1
2017-Sep-17 12:00N 42°31' W 070°53'0 0.0
2017-Sep-17 02:02N 42°31' W 070°53'0 0.0
2017-Sep-17 02:00N 42°31' W 070°53'815.8
2017-Sep-17 01:31N 42°23' W 070°54'713.5
2017-Sep-17 01:00N 42°22' W 071°03'715.0
2017-Sep-17 00:31N 42°24' W 070°54'815.3
2017-Sep-17 00:00N 42°31' W 070°53'0 0.0
2017-Sep-16 23:30N 42°31' W 070°53'0 0.0
2017-Sep-16 23:00N 42°31' W 070°53'0 0.0
2017-Sep-16 22:30N 42°31' W 070°53'815.4
2017-Sep-16 22:01N 42°24' W 070°54'713.9
2017-Sep-16 21:29N 42°22' W 071°03'0 0.0
2017-Sep-16 20:57N 42°22' W 071°03'716.4
2017-Sep-16 20:31N 42°24' W 070°54'714.6
2017-Sep-16 20:01N 42°31' W 070°53'0 0.0
2017-Sep-16 19:30N 42°31' W 070°53'612.6
2017-Sep-16 19:01N 42°25' W 070°52'816.9
2017-Sep-16 18:31N 42°22' W 071°03'0 0.0
2017-Sep-16 18:01N 42°22' W 071°03'714.1
2017-Sep-16 17:31N 42°24' W 070°54'815.4
2017-Sep-16 17:00N 42°31' W 070°53'2 4.9
2017-Sep-16 16:31N 42°31' W 070°50'1224.9
2017-Sep-16 16:01N 42°20' W 070°59'3 6.0
2017-Sep-16 15:28N 42°22' W 071°03'817.3
2017-Sep-16 15:00N 42°25' W 070°53'713.0
2017-Sep-16 14:30N 42°31' W 070°53'713.5
2017-Sep-16 14:00N 42°25' W 070°53'816.0
2017-Sep-16 13:30N 42°22' W 071°03'0 0.0
2017-Sep-16 13:00N 42°22' W 071°03'714.1
2017-Sep-16 12:31N 42°24' W 070°54'815.3
2017-Sep-16 12:00N 42°31' W 070°53'0 0.0
2017-Sep-16 01:00N 42°31' W 070°53'714.0
2017-Sep-16 00:31N 42°24' W 070°53'815.0
2017-Sep-16 00:00N 42°22' W 071°03'713.7
2017-Sep-15 23:30N 42°23' W 070°54'816.0
2017-Sep-15 23:01N 42°31' W 070°53'0 0.0
2017-Sep-15 22:30N 42°31' W 070°53'714.5
2017-Sep-15 22:00N 42°24' W 070°54'714.5
2017-Sep-15 21:30N 42°22' W 071°03'0 0.0
2017-Sep-15 21:00N 42°22' W 071°03'715.1
2017-Sep-15 20:30N 42°24' W 070°53'714.5
2017-Sep-15 20:00N 42°31' W 070°53'0 0.0
2017-Sep-15 19:30N 42°31' W 070°53'815.4
2017-Sep-15 19:01N 42°24' W 070°54'711.6
2017-Sep-15 18:24N 42°22' W 071°03'0 0.0
2017-Sep-15 18:01N 42°22' W 071°03'713.4
2017-Sep-15 17:31N 42°23' W 070°54'816.3
2017-Sep-15 17:00N 42°31' W 070°53'2 3.6
2017-Sep-15 16:31N 42°31' W 070°50'1224.8
2017-Sep-15 16:01N 42°20' W 070°58'4 7.9
2017-Sep-15 15:30N 42°22' W 071°03'714.3
2017-Sep-15 15:01N 42°24' W 070°54'814.8
2017-Sep-15 14:30N 42°31' W 070°53'613.1
2017-Sep-15 14:00N 42°25' W 070°53'816.8
2017-Sep-15 13:30N 42°22' W 071°03'0 0.0
2017-Sep-15 13:00N 42°22' W 071°03'0 0.0
2017-Sep-15 12:30N 42°22' W 071°03'0 0.0
2017-Sep-15 12:00N 42°22' W 071°03'714.9
2017-Sep-15 11:31N 42°24' W 070°53'714.6
2017-Sep-15 11:00N 42°31' W 070°53'0 0.0
2017-Sep-15 10:30N 42°31' W 070°53'0 0.0
2017-Sep-15 00:54N 42°31' W 070°53'513.8
2017-Sep-15 00:30N 42°26' W 070°52'918.8
2017-Sep-15 00:00N 42°22' W 071°03'713.8
2017-Sep-14 23:30N 42°23' W 070°54'815.5
2017-Sep-14 23:00N 42°31' W 070°53'0 0.0
2017-Sep-14 22:30N 42°31' W 070°53'611.9
2017-Sep-14 22:01N 42°25' W 070°52'917.8
2017-Sep-14 21:30N 42°22' W 071°03'0 0.0
2017-Sep-14 21:00N 42°22' W 071°03'612.8
2017-Sep-14 20:31N 42°23' W 070°55'816.1
2017-Sep-14 20:00N 42°31' W 070°53'0 0.0
2017-Sep-14 19:30N 42°31' W 070°53'713.4
2017-Sep-14 19:00N 42°25' W 070°53'816.2
2017-Sep-14 18:30N 42°22' W 071°03'0 0.0
2017-Sep-14 18:00N 42°22' W 071°03'714.0
2017-Sep-14 17:31N 42°24' W 070°54'815.6
2017-Sep-14 17:00N 42°31' W 070°53'2 4.0
2017-Sep-14 16:30N 42°31' W 070°50'1225.0
2017-Sep-14 16:01N 42°20' W 070°58'4 7.6
2017-Sep-14 15:30N 42°22' W 071°03'713.6
2017-Sep-14 15:01N 42°23' W 070°54'815.8
2017-Sep-14 14:30N 42°31' W 070°53'612.7
2017-Sep-14 14:00N 42°25' W 070°52'917.2
2017-Sep-14 13:30N 42°22' W 071°03'0 0.0
2017-Sep-14 13:00N 42°22' W 071°03'0 0.0
2017-Sep-14 12:30N 42°22' W 071°03'0 0.0
2017-Sep-14 12:00N 42°22' W 071°03'815.7
2017-Sep-14 11:31N 42°24' W 070°53'713.7
2017-Sep-14 11:01N 42°31' W 070°53'0 0.0
2017-Sep-14 10:30N 42°31' W 070°53'0 0.0
2017-Sep-14 00:59N 42°31' W 070°53'714.9
2017-Sep-14 00:30N 42°24' W 070°53'815.4
2017-Sep-14 00:01N 42°22' W 071°03'713.3
2017-Sep-13 23:31N 42°23' W 070°54'816.4
2017-Sep-13 23:01N 42°31' W 070°53'0 0.0
2017-Sep-13 22:30N 42°31' W 070°53'612.5
2017-Sep-13 22:01N 42°25' W 070°53'816.8
2017-Sep-13 21:30N 42°22' W 071°03'0 0.0
2017-Sep-13 21:00N 42°22' W 071°03'714.1
2017-Sep-13 20:31N 42°24' W 070°54'815.5
2017-Sep-13 20:00N 42°31' W 070°53'0 0.0
2017-Sep-13 19:30N 42°31' W 070°53'714.5
2017-Sep-13 19:01N 42°24' W 070°53'815.1
2017-Sep-13 18:30N 42°22' W 071°03'0 0.0
2017-Sep-13 18:00N 42°22' W 071°03'713.8
2017-Sep-13 17:31N 42°24' W 070°54'815.2
2017-Sep-13 17:00N 42°31' W 070°53'2 4.8
2017-Sep-13 16:31N 42°31' W 070°50'1224.7
2017-Sep-13 16:01N 42°20' W 070°59'3 6.9
2017-Sep-13 15:30N 42°22' W 071°03'815.6
2017-Sep-13 15:01N 42°24' W 070°53'713.8
2017-Sep-13 14:30N 42°31' W 070°53'713.1
2017-Sep-13 14:01N 42°25' W 070°52'816.9
2017-Sep-13 13:30N 42°22' W 071°03'0 0.0
2017-Sep-13 13:00N 42°22' W 071°03'0 0.0
2017-Sep-13 12:30N 42°22' W 071°03'0 0.0
2017-Sep-13 12:00N 42°22' W 071°03'815.8
2017-Sep-13 11:30N 42°24' W 070°53'713.9
2017-Sep-13 11:00N 42°31' W 070°53'0 0.0
2017-Sep-13 10:30N 42°31' W 070°53'0 0.0
2017-Sep-13 01:00N 42°31' W 070°53'611.8
2017-Sep-13 00:30N 42°26' W 070°52'918.2
2017-Sep-13 00:00N 42°22' W 071°03'713.4
2017-Sep-12 23:30N 42°23' W 070°54'816.2
2017-Sep-12 23:00N 42°31' W 070°53'0 0.0
2017-Sep-12 22:30N 42°31' W 070°53'612.4
2017-Sep-12 22:00N 42°25' W 070°52'917.0
2017-Sep-12 21:30N 42°22' W 071°03'0 0.0
2017-Sep-12 21:00N 42°22' W 071°03'714.6
2017-Sep-12 20:30N 42°24' W 070°54'815.0
2017-Sep-12 20:00N 42°31' W 070°53'0 0.0
2017-Sep-12 19:30N 42°31' W 070°53'713.8
2017-Sep-12 19:01N 42°24' W 070°53'815.9
2017-Sep-12 18:31N 42°22' W 071°03'0 0.0
2017-Sep-12 18:01N 42°22' W 071°03'713.5
2017-Sep-12 17:31N 42°23' W 070°54'816.1
2017-Sep-12 17:01N 42°31' W 070°53'2 4.9
2017-Sep-12 16:30N 42°31' W 070°50'1224.6
2017-Sep-12 16:01N 42°20' W 070°59'3 6.7
2017-Sep-12 15:31N 42°22' W 071°03'713.9
2017-Sep-12 15:01N 42°24' W 070°54'815.5
2017-Sep-12 14:30N 42°31' W 070°53'612.9
2017-Sep-12 14:01N 42°25' W 070°53'816.6
2017-Sep-12 13:30N 42°22' W 071°03'0 0.0
2017-Sep-12 13:00N 42°22' W 071°03'0 0.0
2017-Sep-12 12:30N 42°22' W 071°03'0 0.0
2017-Sep-12 12:00N 42°22' W 071°03'815.2
2017-Sep-12 11:31N 42°24' W 070°53'714.5
2017-Sep-12 11:00N 42°31' W 070°53'0 0.0
2017-Sep-12 10:30N 42°31' W 070°53'0 0.0
2017-Sep-12 00:56N 42°31' W 070°53'614.3
2017-Sep-12 00:31N 42°25' W 070°52'917.6
2017-Sep-12 00:00N 42°22' W 071°03'714.0
2017-Sep-11 23:30N 42°23' W 070°54'815.5
2017-Sep-11 23:00N 42°31' W 070°53'0 0.0
2017-Sep-11 22:30N 42°31' W 070°53'612.2
2017-Sep-11 22:00N 42°25' W 070°52'917.4
2017-Sep-11 21:30N 42°22' W 071°03'0 0.0
2017-Sep-11 21:00N 42°22' W 071°03'713.4
2017-Sep-11 20:31N 42°23' W 070°54'816.0
2017-Sep-11 20:01N 42°31' W 070°53'0 0.0
2017-Sep-11 19:30N 42°31' W 070°53'612.4
2017-Sep-11 19:01N 42°25' W 070°52'917.7
2017-Sep-11 18:30N 42°22' W 071°03'0 0.0
2017-Sep-11 18:00N 42°22' W 071°03'713.4
2017-Sep-11 17:31N 42°23' W 070°54'816.0
2017-Sep-11 17:00N 42°31' W 070°53'3 5.5
2017-Sep-11 16:31N 42°30' W 070°49'1224.7
2017-Sep-11 16:01N 42°20' W 070°60'3 5.4
2017-Sep-11 15:30N 42°22' W 071°03'713.9
2017-Sep-11 15:01N 42°24' W 070°54'815.5
2017-Sep-11 14:31N 42°31' W 070°53'611.8
2017-Sep-11 14:00N 42°25' W 070°52'918.2
2017-Sep-11 13:30N 42°22' W 071°03'0 0.0
2017-Sep-11 13:00N 42°22' W 071°03'0 0.0
2017-Sep-11 12:30N 42°22' W 071°03'0 0.0
2017-Sep-11 12:00N 42°22' W 071°03'714.3
2017-Sep-11 11:30N 42°24' W 070°54'815.3
2017-Sep-11 11:00N 42°31' W 070°53'0 0.0
2017-Sep-11 10:30N 42°31' W 070°53'0 0.0
2017-Sep-11 01:20N 42°31' W 070°53'0 0.0
2017-Sep-11 00:59N 42°31' W 070°53'613.4
2017-Sep-11 00:31N 42°25' W 070°52'816.6
2017-Sep-11 00:00N 42°22' W 071°03'713.8
2017-Sep-10 23:31N 42°23' W 070°54'815.9
2017-Sep-10 23:01N 42°31' W 070°53'0 0.0
2017-Sep-10 22:31N 42°31' W 070°53'612.8
2017-Sep-10 22:00N 42°25' W 070°53'816.7
2017-Sep-10 21:30N 42°22' W 071°03'0 0.0
2017-Sep-10 21:00N 42°22' W 071°03'714.0
2017-Sep-10 20:31N 42°24' W 070°54'815.3
2017-Sep-10 20:00N 42°31' W 070°53'0 0.0
2017-Sep-10 19:30N 42°31' W 070°53'612.8
2017-Sep-10 19:01N 42°25' W 070°52'816.8
2017-Sep-10 18:30N 42°22' W 071°03'0 0.9
2017-Sep-10 18:00N 42°22' W 071°03'714.6
2017-Sep-10 17:30N 42°24' W 070°53'714.2
2017-Sep-10 17:00N 42°31' W 070°53'2 3.7
2017-Sep-10 16:30N 42°31' W 070°50'1224.6
2017-Sep-10 16:01N 42°20' W 070°58'4 8.3
2017-Sep-10 15:30N 42°22' W 071°03'612.8
2017-Sep-10 15:00N 42°24' W 070°55'3 2.5
2017-Sep-10 14:00N 42°25' W 070°52'917.6
2017-Sep-10 13:31N 42°22' W 071°03'0 0.6
2017-Sep-10 13:01N 42°22' W 071°03'714.4
2017-Sep-10 12:30N 42°24' W 070°53'714.7
2017-Sep-10 12:00N 42°31' W 070°53'0 0.0
2017-Sep-10 11:30N 42°31' W 070°53'0 0.0
2017-Sep-10 02:24N 42°31' W 070°53'0 0.0
2017-Sep-10 02:00N 42°31' W 070°53'612.1
2017-Sep-10 01:30N 42°25' W 070°52'917.5
2017-Sep-10 01:00N 42°22' W 071°03'714.1
2017-Sep-10 00:31N 42°23' W 070°54'815.7
2017-Sep-10 00:00N 42°31' W 070°53'0 0.0
2017-Sep-09 23:30N 42°31' W 070°53'0 0.0
2017-Sep-09 23:00N 42°31' W 070°53'  

Dump ship's entire track history